createdAt,value
2018-12-27T00:02:54.936Z,189.33
2018-12-27T00:06:17.408Z,186.47
2018-12-27T00:09:39.935Z,190.70
2018-12-27T00:13:02.412Z,186.43
2018-12-27T00:16:24.892Z,175.00
2018-12-27T00:19:47.087Z,166.43
2018-12-27T00:23:09.908Z,181.33
2018-12-27T00:26:32.622Z,169.13
2018-12-27T00:29:55.236Z,165.27
2018-12-27T00:33:17.914Z,156.90
2018-12-27T00:36:40.474Z,165.73
2018-12-27T00:40:03.075Z,165.60
2018-12-27T00:43:26.030Z,165.70
2018-12-27T00:46:48.689Z,171.47
2018-12-27T00:50:11.414Z,161.00
2018-12-27T00:53:34.446Z,148.50
2018-12-27T00:56:57.235Z,166.37
2018-12-27T01:00:20.219Z,149.47
2018-12-27T01:03:43.202Z,146.33
2018-12-27T01:07:05.547Z,159.97
2018-12-27T01:10:28.344Z,145.40
2018-12-27T01:13:51.052Z,149.77
2018-12-27T01:17:13.689Z,146.67
2018-12-27T01:20:35.936Z,133.83
2018-12-27T01:23:58.720Z,131.10
2018-12-27T01:27:21.376Z,149.10
2018-12-27T01:30:44.173Z,138.53
2018-12-27T01:34:06.561Z,121.60
2018-12-27T01:37:29.202Z,128.47
2018-12-27T01:40:51.746Z,123.30
2018-12-27T01:44:14.045Z,109.60
2018-12-27T01:47:36.571Z,119.53
2018-12-27T01:50:58.886Z,127.67
2018-12-27T01:54:21.488Z,121.27
2018-12-27T01:57:44.124Z,124.13
2018-12-27T02:01:07.024Z,104.87
2018-12-27T02:04:29.580Z,114.37
2018-12-27T02:07:52.155Z,109.63
2018-12-27T02:11:14.782Z,106.00
2018-12-27T02:14:37.091Z,110.63
2018-12-27T02:17:59.787Z,115.83
2018-12-27T02:21:22.647Z,105.57
2018-12-27T02:24:45.271Z,103.63
2018-12-27T02:28:08.232Z,99.73
2018-12-27T02:31:30.626Z,98.47
2018-12-27T02:34:53.512Z,91.97
2018-12-27T02:38:16.208Z,82.73
2018-12-27T02:41:39.260Z,80.70
2018-12-27T02:45:01.793Z,78.63
2018-12-27T02:48:24.495Z,75.53
2018-12-27T02:51:47.342Z,67.43
2018-12-27T02:55:09.704Z,72.43
2018-12-27T02:58:32.218Z,73.27
2018-12-27T03:01:54.804Z,71.57
2018-12-27T03:05:17.524Z,69.50
2018-12-27T03:08:40.283Z,80.23
2018-12-27T03:12:02.577Z,80.93
2018-12-27T03:15:25.268Z,77.50
2018-12-27T03:18:47.770Z,65.43
2018-12-27T03:22:10.054Z,72.33
2018-12-27T03:25:32.260Z,61.90
2018-12-27T03:28:54.736Z,63.77
2018-12-27T03:32:17.029Z,67.20
2018-12-27T03:35:39.507Z,98.60
2018-12-27T03:39:02.185Z,71.37
2018-12-27T03:42:24.758Z,68.93
2018-12-27T03:45:47.296Z,71.97
2018-12-27T03:49:09.842Z,69.07
2018-12-27T03:52:32.376Z,67.80
2018-12-27T03:55:55.362Z,67.20
2018-12-27T03:59:17.925Z,65.67
2018-12-27T04:02:40.733Z,58.70
2018-12-27T04:06:03.143Z,52.00
2018-12-27T04:09:25.810Z,58.53
2018-12-27T04:12:48.457Z,55.13
2018-12-27T04:16:11.066Z,54.83
2018-12-27T04:19:33.637Z,53.33
2018-12-27T04:22:56.612Z,52.53
2018-12-27T04:26:19.392Z,51.80
2018-12-27T04:29:41.644Z,51.80
2018-12-27T04:33:10.143Z,55.67
2018-12-27T04:36:32.689Z,50.43
2018-12-27T04:39:55.213Z,49.10
2018-12-27T04:43:18.612Z,56.60
2018-12-27T04:46:41.056Z,58.50
2018-12-27T04:50:04.205Z,54.20
2018-12-27T04:53:26.701Z,57.37
2018-12-27T04:56:49.156Z,62.80
2018-12-27T05:00:12.741Z,56.97
2018-12-27T05:03:35.501Z,50.73
2018-12-27T05:06:58.274Z,44.63
2018-12-27T05:10:21.148Z,49.53
2018-12-27T05:13:43.708Z,38.83
2018-12-27T05:17:06.404Z,43.63
2018-12-27T05:20:29.117Z,36.60
2018-12-27T05:23:51.761Z,36.30
2018-12-27T05:27:14.377Z,37.50
2018-12-27T05:30:37.231Z,37.93
2018-12-27T05:34:00.114Z,36.97
2018-12-27T05:37:22.457Z,33.30
2018-12-27T05:40:45.184Z,32.87
2018-12-27T05:44:07.532Z,36.97
2018-12-27T05:47:29.906Z,32.30
2018-12-27T05:50:52.004Z,34.03
2018-12-27T05:54:14.041Z,32.60
2018-12-27T05:57:36.395Z,36.20
2018-12-27T06:00:58.713Z,30.60
2018-12-27T06:04:20.868Z,32.77
2018-12-27T06:07:43.556Z,32.10
2018-12-27T06:11:05.705Z,28.17
2018-12-27T06:14:27.876Z,27.10
2018-12-27T06:17:50.028Z,24.70
2018-12-27T06:21:12.191Z,30.27
2018-12-27T06:24:34.620Z,28.03
2018-12-27T06:27:57.046Z,25.43
2018-12-27T06:31:19.659Z,27.30
2018-12-27T06:34:41.968Z,25.90
2018-12-27T06:38:04.616Z,25.73
2018-12-27T06:41:27.268Z,27.40
2018-12-27T06:44:49.898Z,28.60
2018-12-27T06:48:12.465Z,33.13
2018-12-27T06:51:35.121Z,24.73
2018-12-27T06:54:57.616Z,24.03
2018-12-27T06:58:20.264Z,25.90
2018-12-27T07:01:42.605Z,22.73
2018-12-27T07:05:05.499Z,23.57
2018-12-27T07:08:27.843Z,24.57
2018-12-27T07:11:49.920Z,24.27
2018-12-27T07:15:12.531Z,25.17
2018-12-27T07:18:34.616Z,25.40
2018-12-27T07:21:57.468Z,27.80
2018-12-27T07:25:19.845Z,26.43
2018-12-27T07:28:42.180Z,28.37
2018-12-27T07:32:04.524Z,26.67
2018-12-27T07:35:27.231Z,28.87
2018-12-27T07:38:49.707Z,28.10
2018-12-27T07:42:12.201Z,28.27
2018-12-27T07:45:34.562Z,27.53
2018-12-27T07:48:57.017Z,31.30
2018-12-27T07:52:19.732Z,29.80
2018-12-27T07:55:42.340Z,31.10
2018-12-27T07:59:04.868Z,28.00
2018-12-27T08:02:27.532Z,29.17
2018-12-27T08:05:50.097Z,28.93
2018-12-27T08:09:12.728Z,27.87
2018-12-27T08:12:35.598Z,29.17
2018-12-27T08:15:58.208Z,32.10
2018-12-27T08:19:20.981Z,36.90
2018-12-27T08:22:43.478Z,30.30
2018-12-27T08:26:05.804Z,34.40
2018-12-27T08:29:28.085Z,35.00
2018-12-27T08:32:50.608Z,36.37
2018-12-27T08:36:13.319Z,34.90
2018-12-27T08:39:35.737Z,37.77
2018-12-27T08:42:58.198Z,35.17
2018-12-27T08:46:20.584Z,37.63
2018-12-27T08:49:43.020Z,37.63
2018-12-27T08:53:05.632Z,40.13
2018-12-27T08:56:28.017Z,41.23
2018-12-27T08:59:50.208Z,44.47
2018-12-27T09:03:12.669Z,41.07
2018-12-27T09:06:35.290Z,40.10
2018-12-27T09:09:57.448Z,42.13
2018-12-27T09:13:20.293Z,38.63
2018-12-27T09:16:42.808Z,41.53
2018-12-27T09:20:06.065Z,42.93
2018-12-27T09:23:28.436Z,42.40
2018-12-27T09:26:50.864Z,43.57
2018-12-27T09:30:13.385Z,43.43
2018-12-27T09:33:35.704Z,48.03
2018-12-27T09:36:58.370Z,41.23
2018-12-27T09:40:21.201Z,41.73
2018-12-27T09:43:44.067Z,40.13
2018-12-27T09:47:06.669Z,45.77
2018-12-27T09:50:29.364Z,46.13
2018-12-27T09:53:51.853Z,44.80
2018-12-27T09:57:14.467Z,39.20
2018-12-27T10:00:37.121Z,39.77
2018-12-27T10:03:59.681Z,48.07
2018-12-27T10:07:22.021Z,42.10
2018-12-27T10:10:44.680Z,42.63
2018-12-27T10:14:07.335Z,45.63
2018-12-27T10:17:29.957Z,41.83
2018-12-27T10:20:52.717Z,44.97
2018-12-27T10:24:15.212Z,45.30
2018-12-27T10:27:37.730Z,50.37
2018-12-27T10:31:00.203Z,40.23
2018-12-27T10:34:22.661Z,42.97
2018-12-27T10:37:44.968Z,44.80
2018-12-27T10:41:07.189Z,45.37
2018-12-27T10:44:29.659Z,38.07
2018-12-27T10:47:52.176Z,43.30
2018-12-27T10:51:14.255Z,38.80
2018-12-27T10:54:36.688Z,38.03
2018-12-27T10:57:59.496Z,41.60
2018-12-27T11:01:21.734Z,42.30
2018-12-27T11:04:44.659Z,37.67
2018-12-27T11:08:07.329Z,38.10
2018-12-27T11:11:29.973Z,38.03
2018-12-27T11:14:53.677Z,39.90
2018-12-27T11:18:16.417Z,36.80
2018-12-27T11:21:39.000Z,38.23
2018-12-27T11:25:01.602Z,35.90
2018-12-27T11:28:24.132Z,36.27
2018-12-27T11:31:46.857Z,35.17
2018-12-27T11:35:09.279Z,33.63
2018-12-27T11:38:31.441Z,35.37
2018-12-27T11:41:53.788Z,36.90
2018-12-27T11:45:15.884Z,37.77
2018-12-27T11:48:38.307Z,37.70
2018-12-27T11:52:00.757Z,36.77
2018-12-27T11:55:23.428Z,38.23
2018-12-27T11:58:45.813Z,33.90
2018-12-27T12:02:08.264Z,33.07
2018-12-27T12:05:30.612Z,35.80
2018-12-27T12:08:53.021Z,32.87
2018-12-27T12:12:15.626Z,39.03
2018-12-27T12:15:38.115Z,36.73
2018-12-27T12:19:00.506Z,38.37
2018-12-27T12:22:23.000Z,38.07
2018-12-27T12:25:45.490Z,35.20
2018-12-27T12:29:08.284Z,34.43
2018-12-27T12:32:30.457Z,37.57
2018-12-27T12:35:53.402Z,39.63
2018-12-27T12:39:16.238Z,38.43
2018-12-27T12:42:39.097Z,39.13
2018-12-27T12:46:01.812Z,36.83
2018-12-27T12:49:24.440Z,38.93
2018-12-27T12:52:46.688Z,38.13
2018-12-27T12:56:09.276Z,37.97
2018-12-27T12:59:31.680Z,35.73
2018-12-27T13:02:53.829Z,35.00
2018-12-27T13:06:18.189Z,35.50
2018-12-27T13:09:40.070Z,35.97
2018-12-27T13:13:02.810Z,32.93
2018-12-27T13:16:25.109Z,31.00
2018-12-27T13:19:47.863Z,37.33
2018-12-27T13:23:09.992Z,34.53
2018-12-27T13:26:32.577Z,29.87
2018-12-27T13:29:55.092Z,30.97
2018-12-27T13:33:17.363Z,30.43
2018-12-27T13:36:40.837Z,33.83
2018-12-27T13:40:03.420Z,38.43
2018-12-27T13:43:26.029Z,40.13
2018-12-27T13:46:48.412Z,36.90
2018-12-27T13:50:11.068Z,33.60
2018-12-27T13:53:33.765Z,35.37
2018-12-27T13:56:56.246Z,38.57
2018-12-27T14:00:19.555Z,36.97
2018-12-27T14:03:42.055Z,35.43
2018-12-27T14:07:04.578Z,34.63
2018-12-27T14:10:27.361Z,40.03
2018-12-27T14:13:50.017Z,36.40
2018-12-27T14:17:12.552Z,35.80
2018-12-27T14:20:35.036Z,35.43
2018-12-27T14:23:57.598Z,37.30
2018-12-27T14:27:19.940Z,39.30
2018-12-27T14:30:42.681Z,38.33
2018-12-27T14:34:05.527Z,36.43
2018-12-27T14:37:28.137Z,39.70
2018-12-27T14:40:50.968Z,37.97
2018-12-27T14:44:14.454Z,40.13
2018-12-27T14:47:37.574Z,38.70
2018-12-27T14:51:00.427Z,39.87
2018-12-27T14:54:23.012Z,41.27
2018-12-27T14:57:45.317Z,40.27
2018-12-27T15:01:07.727Z,40.13
2018-12-27T15:04:29.869Z,44.47
2018-12-27T15:07:52.298Z,38.83
2018-12-27T15:11:14.679Z,41.33
2018-12-27T15:14:37.039Z,35.20
2018-12-27T15:17:59.392Z,43.17
2018-12-27T15:21:22.055Z,41.90
2018-12-27T15:24:44.638Z,39.90
2018-12-27T15:28:07.049Z,45.60
2018-12-27T15:31:29.398Z,43.93
2018-12-27T15:34:51.940Z,42.77
2018-12-27T15:38:14.381Z,47.73
2018-12-27T15:41:37.126Z,49.03
2018-12-27T15:44:59.672Z,50.53
2018-12-27T15:48:22.030Z,51.93
2018-12-27T15:51:44.444Z,51.30
2018-12-27T15:55:07.126Z,54.53
2018-12-27T15:58:29.696Z,50.97
2018-12-27T16:01:51.945Z,50.70
2018-12-27T16:05:14.714Z,51.33
2018-12-27T16:11:43.877Z,50.33
2018-12-27T16:15:06.725Z,49.77
2018-12-27T16:18:28.918Z,50.97
2018-12-27T16:21:51.364Z,50.27
2018-12-27T16:25:13.437Z,58.67
2018-12-27T16:28:35.848Z,58.93
2018-12-27T16:31:58.096Z,53.23
2018-12-27T16:35:20.273Z,51.27
2018-12-27T16:38:42.435Z,44.77
2018-12-27T16:42:04.535Z,50.70
2018-12-27T16:45:26.645Z,51.33
2018-12-27T16:48:48.805Z,55.13
2018-12-27T16:52:11.248Z,61.97
2018-12-27T16:55:33.178Z,48.53
2018-12-27T16:58:55.432Z,53.60
2018-12-27T17:02:17.792Z,49.33
2018-12-27T17:05:40.382Z,48.63
2018-12-27T17:09:02.920Z,49.10
2018-12-27T17:12:25.311Z,48.63
2018-12-27T17:15:47.318Z,56.63
2018-12-27T17:19:09.902Z,49.17
2018-12-27T17:22:32.004Z,47.83
2018-12-27T17:25:54.493Z,47.03
2018-12-27T17:29:16.707Z,48.07
2018-12-27T17:32:38.929Z,48.33
2018-12-27T17:36:01.092Z,46.23
2018-12-27T17:39:23.537Z,48.80
2018-12-27T17:42:45.712Z,49.10
2018-12-27T17:46:07.808Z,46.23
2018-12-27T17:49:30.009Z,47.43
2018-12-27T17:52:52.119Z,46.20
2018-12-27T17:56:14.328Z,50.27
2018-12-27T17:59:36.301Z,42.70
2018-12-27T18:02:58.560Z,46.50
2018-12-27T18:06:20.921Z,51.10
2018-12-27T18:09:43.247Z,43.07
2018-12-27T18:13:05.588Z,45.60
2018-12-27T18:16:27.846Z,43.60
2018-12-27T18:19:50.046Z,45.73
2018-12-27T18:23:11.960Z,46.50
2018-12-27T18:26:34.434Z,46.40
2018-12-27T18:29:56.825Z,43.80
2018-12-27T18:33:19.010Z,52.47
2018-12-27T18:36:41.202Z,42.83
2018-12-27T18:40:03.437Z,52.43
2018-12-27T18:43:25.914Z,47.33
2018-12-27T18:46:48.062Z,45.87
2018-12-27T18:50:10.262Z,44.83
2018-12-27T18:53:32.709Z,41.37
2018-12-27T18:56:55.231Z,40.87
2018-12-27T19:00:18.178Z,46.47
2018-12-27T19:03:40.760Z,35.50
2018-12-27T19:07:02.976Z,45.80
2018-12-27T19:10:24.961Z,38.77
2018-12-27T19:13:46.976Z,40.73
2018-12-27T19:17:18.790Z,40.07
2018-12-27T19:20:42.296Z,40.37
2018-12-27T19:24:04.453Z,39.97
2018-12-27T19:27:26.624Z,42.80
2018-12-27T19:30:48.824Z,46.30
2018-12-27T19:34:11.046Z,37.53
2018-12-27T19:37:32.952Z,40.23
2018-12-27T19:40:55.172Z,45.33
2018-12-27T19:44:17.410Z,44.47
2018-12-27T19:47:39.575Z,38.47
2018-12-27T19:51:02.095Z,38.03
2018-12-27T19:54:24.505Z,38.03
2018-12-27T19:57:46.909Z,36.37
2018-12-27T20:01:09.499Z,42.17
2018-12-27T20:04:31.696Z,41.80
2018-12-27T20:07:59.281Z,39.63
2018-12-27T20:11:17.641Z,40.90
2018-12-27T20:14:39.804Z,43.33
2018-12-27T20:18:01.969Z,41.40
2018-12-27T20:21:24.380Z,42.43
2018-12-27T20:24:46.939Z,45.10
2018-12-27T20:28:08.829Z,43.47
2018-12-27T20:31:31.270Z,45.57
2018-12-27T20:34:53.469Z,40.40
2018-12-27T20:38:15.572Z,46.83
2018-12-27T20:41:37.469Z,44.17
2018-12-27T20:44:59.367Z,42.07
2018-12-27T20:48:21.572Z,45.47
2018-12-27T20:51:43.844Z,48.73
2018-12-27T20:55:06.107Z,54.93
2018-12-27T20:58:28.649Z,49.43
2018-12-27T21:01:50.685Z,55.60
2018-12-27T21:05:16.187Z,51.67
2018-12-27T21:08:38.543Z,55.43
2018-12-27T21:12:01.218Z,58.30
2018-12-27T21:15:23.862Z,54.60
2018-12-27T21:18:45.869Z,51.63
2018-12-27T21:22:08.149Z,53.87
2018-12-27T21:25:30.333Z,53.80
2018-12-27T21:28:52.693Z,55.87
2018-12-27T21:32:14.575Z,56.00
2018-12-27T21:35:37.020Z,61.20
2018-12-27T21:38:59.449Z,64.93
2018-12-27T21:42:21.645Z,54.00
2018-12-27T21:45:43.809Z,59.60
2018-12-27T21:49:05.988Z,58.30
2018-12-27T21:52:28.113Z,50.20
2018-12-27T21:55:50.356Z,56.00
2018-12-27T21:59:12.637Z,59.57
2018-12-27T22:02:34.641Z,58.63
2018-12-27T22:05:56.852Z,65.57
2018-12-27T22:09:19.217Z,56.97
2018-12-27T22:12:41.444Z,58.93
2018-12-27T22:16:03.801Z,62.13
2018-12-27T22:19:26.350Z,65.23
2018-12-27T22:22:48.404Z,67.40
2018-12-27T22:26:10.553Z,62.33
2018-12-27T22:29:32.668Z,74.60
2018-12-27T22:32:54.789Z,73.17
2018-12-27T22:36:17.209Z,70.27
2018-12-27T22:39:39.376Z,65.97
2018-12-27T22:43:01.677Z,70.30
2018-12-27T22:46:23.790Z,71.43
2018-12-27T22:49:46.402Z,74.20
2018-12-27T22:53:08.484Z,69.50
2018-12-27T22:56:30.593Z,79.40
2018-12-27T22:59:52.702Z,84.67
2018-12-27T23:03:15.147Z,81.33
2018-12-27T23:06:37.340Z,79.77
2018-12-27T23:09:59.552Z,81.03
2018-12-27T23:13:21.904Z,83.37
2018-12-27T23:16:44.166Z,88.27
2018-12-27T23:20:06.442Z,91.07
2018-12-27T23:23:28.745Z,80.77
2018-12-27T23:26:51.253Z,96.27
2018-12-27T23:30:13.500Z,87.13
2018-12-27T23:33:35.709Z,95.97
2018-12-27T23:36:58.205Z,83.47
2018-12-27T23:40:20.041Z,90.40
2018-12-27T23:43:42.076Z,89.80
2018-12-27T23:47:04.252Z,92.43
2018-12-27T23:50:26.358Z,95.23
2018-12-27T23:53:48.832Z,97.13
2018-12-27T23:57:10.946Z,97.00
